Aviation Digital Data Service (ADDS)

Output produced by METARs form (0335 UTC 01 September 2016)
found at http://aviationweather.gov/adds/metars/
 
KDFW 010256Z 0103/0206 02005KT P6SM VCSH SCT060 
     FM010600 02006KT P6SM FEW050 SCT250 
     FM011700 03008KT P6SM VCTS BKN060CB 
     FM020000 03007KT P6SM VCSH BKN050 BKN150